sensor_id;sensor_type;location;lat;lon;timestamp;temperature;humidity
14741;DHT22;7462;53.530;9.414;2023-04-24T00:01:45;12.40;99.90
14741;DHT22;7462;53.530;9.414;2023-04-24T00:04:13;12.40;99.90
14741;DHT22;7462;53.530;9.414;2023-04-24T00:06:43;12.40;99.90
14741;DHT22;7462;53.530;9.414;2023-04-24T00:09:16;12.40;99.90
14741;DHT22;7462;53.530;9.414;2023-04-24T00:11:44;12.40;99.90
14741;DHT22;7462;53.530;9.414;2023-04-24T00:14:12;12.40;99.90
14741;DHT22;7462;53.530;9.414;2023-04-24T00:16:40;12.40;99.90
14741;DHT22;7462;53.530;9.414;2023-04-24T00:19:09;12.40;99.90
14741;DHT22;7462;53.530;9.414;2023-04-24T00:21:38;12.30;99.90
14741;DHT22;7462;53.530;9.414;2023-04-24T00:24:07;12.30;99.90
14741;DHT22;7462;53.530;9.414;2023-04-24T00:26:36;12.40;99.90
14741;DHT22;7462;53.530;9.414;2023-04-24T00:29:04;12.30;99.90
14741;DHT22;7462;53.530;9.414;2023-04-24T00:31:32;12.30;99.90
14741;DHT22;7462;53.530;9.414;2023-04-24T00:34:02;12.30;99.90
14741;DHT22;7462;53.530;9.414;2023-04-24T00:36:31;12.30;99.90
14741;DHT22;7462;53.530;9.414;2023-04-24T00:38:59;12.20;99.90
14741;DHT22;7462;53.530;9.414;2023-04-24T00:41:27;12.30;99.90
14741;DHT22;7462;53.530;9.414;2023-04-24T00:43:55;12.30;99.90
14741;DHT22;7462;53.530;9.414;2023-04-24T00:46:23;12.20;99.90
14741;DHT22;7462;53.530;9.414;2023-04-24T00:48:52;12.10;99.90
14741;DHT22;7462;53.530;9.414;2023-04-24T00:51:20;12.10;99.90
14741;DHT22;7462;53.530;9.414;2023-04-24T00:53:49;12.10;99.90
14741;DHT22;7462;53.530;9.414;2023-04-24T00:56:19;12.00;99.90
14741;DHT22;7462;53.530;9.414;2023-04-24T00:58:47;12.00;99.90
14741;DHT22;7462;53.530;9.414;2023-04-24T01:01:16;12.00;99.90
14741;DHT22;7462;53.530;9.414;2023-04-24T01:03:45;12.00;99.90
14741;DHT22;7462;53.530;9.414;2023-04-24T01:06:13;12.00;99.90
14741;DHT22;7462;53.530;9.414;2023-04-24T01:08:43;12.00;99.90
14741;DHT22;7462;53.530;9.414;2023-04-24T01:11:12;12.00;99.90
14741;DHT22;7462;53.530;9.414;2023-04-24T01:13:41;12.00;99.90
14741;DHT22;7462;53.530;9.414;2023-04-24T01:16:09;12.10;99.90
14741;DHT22;7462;53.530;9.414;2023-04-24T01:18:37;12.10;99.90
14741;DHT22;7462;53.530;9.414;2023-04-24T01:21:07;12.10;99.90
14741;DHT22;7462;53.530;9.414;2023-04-24T01:23:37;12.20;99.90
14741;DHT22;7462;53.530;9.414;2023-04-24T01:26:05;12.10;99.90
14741;DHT22;7462;53.530;9.414;2023-04-24T01:28:34;12.20;99.90
14741;DHT22;7462;53.530;9.414;2023-04-24T01:31:04;12.10;99.90
14741;DHT22;7462;53.530;9.414;2023-04-24T01:33:33;12.10;99.90
14741;DHT22;7462;53.530;9.414;2023-04-24T01:36:01;12.10;99.90
14741;DHT22;7462;53.530;9.414;2023-04-24T01:38:29;12.10;99.90
14741;DHT22;7462;53.530;9.414;2023-04-24T01:41:00;12.10;99.90
14741;DHT22;7462;53.530;9.414;2023-04-24T01:43:29;12.10;99.90
14741;DHT22;7462;53.530;9.414;2023-04-24T01:45:57;12.00;99.90
14741;DHT22;7462;53.530;9.414;2023-04-24T01:48:26;12.00;99.90
14741;DHT22;7462;53.530;9.414;2023-04-24T01:50:54;12.00;99.90
14741;DHT22;7462;53.530;9.414;2023-04-24T01:53:23;12.00;99.90
14741;DHT22;7462;53.530;9.414;2023-04-24T01:55:51;12.00;99.90
14741;DHT22;7462;53.530;9.414;2023-04-24T01:58:21;12.00;99.90
14741;DHT22;7462;53.530;9.414;2023-04-24T02:00:49;11.90;99.90
14741;DHT22;7462;53.530;9.414;2023-04-24T02:03:17;11.80;99.90
14741;DHT22;7462;53.530;9.414;2023-04-24T02:05:48;11.80;99.90
14741;DHT22;7462;53.530;9.414;2023-04-24T02:08:16;11.70;99.90
14741;DHT22;7462;53.530;9.414;2023-04-24T02:10:44;11.70;99.90
14741;DHT22;7462;53.530;9.414;2023-04-24T02:13:12;11.70;99.90
14741;DHT22;7462;53.530;9.414;2023-04-24T02:15:42;11.70;99.90
14741;DHT22;7462;53.530;9.414;2023-04-24T02:18:10;11.60;99.90
14741;DHT22;7462;53.530;9.414;2023-04-24T02:20:39;11.60;99.90
14741;DHT22;7462;53.530;9.414;2023-04-24T02:23:07;11.60;99.90
14741;DHT22;7462;53.530;9.414;2023-04-24T02:25:35;11.60;99.90
14741;DHT22;7462;53.530;9.414;2023-04-24T02:28:03;11.50;99.90
14741;DHT22;7462;53.530;9.414;2023-04-24T02:30:33;11.60;99.90
14741;DHT22;7462;53.530;9.414;2023-04-24T02:33:03;11.60;99.90
14741;DHT22;7462;53.530;9.414;2023-04-24T02:35:31;11.50;99.90
14741;DHT22;7462;53.530;9.414;2023-04-24T02:37:59;11.50;99.90
14741;DHT22;7462;53.530;9.414;2023-04-24T02:40:27;11.50;99.90
14741;DHT22;7462;53.530;9.414;2023-04-24T02:42:55;11.50;99.90
14741;DHT22;7462;53.530;9.414;2023-04-24T02:45:23;11.50;99.90
14741;DHT22;7462;53.530;9.414;2023-04-24T02:47:51;11.50;99.90
14741;DHT22;7462;53.530;9.414;2023-04-24T02:50:22;11.40;99.90
14741;DHT22;7462;53.530;9.414;2023-04-24T02:52:50;11.30;99.90
14741;DHT22;7462;53.530;9.414;2023-04-24T02:55:18;11.30;99.90
14741;DHT22;7462;53.530;9.414;2023-04-24T02:57:46;11.30;99.90
14741;DHT22;7462;53.530;9.414;2023-04-24T03:00:15;11.20;99.90
14741;DHT22;7462;53.530;9.414;2023-04-24T03:02:46;11.20;99.90
14741;DHT22;7462;53.530;9.414;2023-04-24T03:05:14;11.10;99.90
14741;DHT22;7462;53.530;9.414;2023-04-24T03:07:44;11.10;99.90
14741;DHT22;7462;53.530;9.414;2023-04-24T03:10:13;11.10;99.90
14741;DHT22;7462;53.530;9.414;2023-04-24T03:12:41;11.10;99.90
14741;DHT22;7462;53.530;9.414;2023-04-24T03:15:09;11.10;99.90
14741;DHT22;7462;53.530;9.414;2023-04-24T03:17:38;11.10;99.90
14741;DHT22;7462;53.530;9.414;2023-04-24T03:20:07;11.00;99.90
14741;DHT22;7462;53.530;9.414;2023-04-24T03:22:36;11.10;99.90
14741;DHT22;7462;53.530;9.414;2023-04-24T03:25:09;11.10;99.90
14741;DHT22;7462;53.530;9.414;2023-04-24T03:27:37;11.10;99.90
14741;DHT22;7462;53.530;9.414;2023-04-24T03:30:24;11.10;99.90
14741;DHT22;7462;53.530;9.414;2023-04-24T03:32:56;11.10;99.90
14741;DHT22;7462;53.530;9.414;2023-04-24T03:35:28;11.10;99.90
14741;DHT22;7462;53.530;9.414;2023-04-24T03:38:00;11.10;99.90
14741;DHT22;7462;53.530;9.414;2023-04-24T03:40:55;11.10;99.90
14741;DHT22;7462;53.530;9.414;2023-04-24T03:43:44;11.10;99.90
14741;DHT22;7462;53.530;9.414;2023-04-24T03:46:12;11.10;99.90
14741;DHT22;7462;53.530;9.414;2023-04-24T03:48:46;11.10;99.90
14741;DHT22;7462;53.530;9.414;2023-04-24T03:51:17;11.10;99.90
14741;DHT22;7462;53.530;9.414;2023-04-24T03:53:47;11.00;99.90
14741;DHT22;7462;53.530;9.414;2023-04-24T03:56:20;11.00;99.90
14741;DHT22;7462;53.530;9.414;2023-04-24T03:58:48;11.00;99.90
14741;DHT22;7462;53.530;9.414;2023-04-24T04:01:17;11.00;99.90
14741;DHT22;7462;53.530;9.414;2023-04-24T04:04:07;11.00;99.90
14741;DHT22;7462;53.530;9.414;2023-04-24T04:06:37;11.00;99.90
14741;DHT22;7462;53.530;9.414;2023-04-24T04:09:05;11.00;99.90
14741;DHT22;7462;53.530;9.414;2023-04-24T04:11:36;11.00;99.90
14741;DHT22;7462;53.530;9.414;2023-04-24T04:14:05;11.00;99.90
14741;DHT22;7462;53.530;9.414;2023-04-24T04:16:34;11.00;99.90
14741;DHT22;7462;53.530;9.414;2023-04-24T04:19:05;11.00;99.90
14741;DHT22;7462;53.530;9.414;2023-04-24T04:21:34;11.00;99.90
14741;DHT22;7462;53.530;9.414;2023-04-24T04:24:10;11.10;99.90
14741;DHT22;7462;53.530;9.414;2023-04-24T04:26:44;11.10;99.90
14741;DHT22;7462;53.530;9.414;2023-04-24T04:29:22;11.10;99.90
14741;DHT22;7462;53.530;9.414;2023-04-24T04:31:51;11.10;99.90
14741;DHT22;7462;53.530;9.414;2023-04-24T04:34:20;11.10;99.90
14741;DHT22;7462;53.530;9.414;2023-04-24T04:36:50;11.20;99.90
14741;DHT22;7462;53.530;9.414;2023-04-24T04:39:29;11.20;99.90
14741;DHT22;7462;53.530;9.414;2023-04-24T04:42:20;11.20;99.90
14741;DHT22;7462;53.530;9.414;2023-04-24T04:44:49;11.20;99.90
14741;DHT22;7462;53.530;9.414;2023-04-24T04:47:25;11.30;99.90
14741;DHT22;7462;53.530;9.414;2023-04-24T04:49:55;11.30;99.90
14741;DHT22;7462;53.530;9.414;2023-04-24T04:52:26;11.30;99.90
14741;DHT22;7462;53.530;9.414;2023-04-24T04:55:03;11.30;99.90
14741;DHT22;7462;53.530;9.414;2023-04-24T04:57:53;11.30;99.90
14741;DHT22;7462;53.530;9.414;2023-04-24T05:00:22;11.30;99.90
14741;DHT22;7462;53.530;9.414;2023-04-24T05:02:52;11.30;99.90
14741;DHT22;7462;53.530;9.414;2023-04-24T05:05:27;11.30;99.90
14741;DHT22;7462;53.530;9.414;2023-04-24T05:07:56;11.40;99.90
14741;DHT22;7462;53.530;9.414;2023-04-24T05:10:24;11.40;99.90
14741;DHT22;7462;53.530;9.414;2023-04-24T05:12:55;11.40;99.90
14741;DHT22;7462;53.530;9.414;2023-04-24T05:15:23;11.40;99.90
14741;DHT22;7462;53.530;9.414;2023-04-24T05:17:52;11.40;99.90
14741;DHT22;7462;53.530;9.414;2023-04-24T05:20:24;11.40;99.90
14741;DHT22;7462;53.530;9.414;2023-04-24T05:22:53;11.40;99.90
14741;DHT22;7462;53.530;9.414;2023-04-24T05:25:23;11.50;99.90
14741;DHT22;7462;53.530;9.414;2023-04-24T05:27:57;11.50;99.90
14741;DHT22;7462;53.530;9.414;2023-04-24T05:30:25;11.50;99.90
14741;DHT22;7462;53.530;9.414;2023-04-24T05:32:54;11.50;99.90
14741;DHT22;7462;53.530;9.414;2023-04-24T05:35:22;11.50;99.90
14741;DHT22;7462;53.530;9.414;2023-04-24T05:37:51;11.50;99.90
14741;DHT22;7462;53.530;9.414;2023-04-24T05:40:19;11.60;99.90
14741;DHT22;7462;53.530;9.414;2023-04-24T05:42:47;11.50;99.90
14741;DHT22;7462;53.530;9.414;2023-04-24T05:45:17;11.60;99.90
14741;DHT22;7462;53.530;9.414;2023-04-24T05:47:45;11.60;99.90
14741;DHT22;7462;53.530;9.414;2023-04-24T05:50:14;11.70;99.90
14741;DHT22;7462;53.530;9.414;2023-04-24T05:52:42;11.70;99.90
14741;DHT22;7462;53.530;9.414;2023-04-24T05:55:22;11.80;99.90
14741;DHT22;7462;53.530;9.414;2023-04-24T05:57:51;11.90;99.90
14741;DHT22;7462;53.530;9.414;2023-04-24T06:00:21;12.00;99.90
14741;DHT22;7462;53.530;9.414;2023-04-24T06:02:58;12.00;99.90
14741;DHT22;7462;53.530;9.414;2023-04-24T06:05:27;12.00;99.90
14741;DHT22;7462;53.530;9.414;2023-04-24T06:07:55;12.00;99.90
14741;DHT22;7462;53.530;9.414;2023-04-24T06:10:27;12.10;99.90
14741;DHT22;7462;53.530;9.414;2023-04-24T06:12:55;12.10;99.90
14741;DHT22;7462;53.530;9.414;2023-04-24T06:15:30;12.10;99.90
14741;DHT22;7462;53.530;9.414;2023-04-24T06:18:07;12.20;99.90
14741;DHT22;7462;53.530;9.414;2023-04-24T06:20:37;12.20;99.90
14741;DHT22;7462;53.530;9.414;2023-04-24T06:23:08;12.40;99.90
14741;DHT22;7462;53.530;9.414;2023-04-24T06:25:36;12.40;99.90
14741;DHT22;7462;53.530;9.414;2023-04-24T06:28:07;12.40;99.90
14741;DHT22;7462;53.530;9.414;2023-04-24T06:30:37;12.40;99.90
14741;DHT22;7462;53.530;9.414;2023-04-24T06:33:05;12.50;99.90
14741;DHT22;7462;53.530;9.414;2023-04-24T06:35:46;12.60;99.90
14741;DHT22;7462;53.530;9.414;2023-04-24T06:38:14;12.60;99.90
14741;DHT22;7462;53.530;9.414;2023-04-24T06:40:43;12.50;99.90
14741;DHT22;7462;53.530;9.414;2023-04-24T06:43:11;12.50;99.90
14741;DHT22;7462;53.530;9.414;2023-04-24T06:45:41;12.40;99.90
14741;DHT22;7462;53.530;9.414;2023-04-24T06:48:10;12.30;99.90
14741;DHT22;7462;53.530;9.414;2023-04-24T06:50:39;12.50;99.90
14741;DHT22;7462;53.530;9.414;2023-04-24T06:53:07;13.00;99.90
14741;DHT22;7462;53.530;9.414;2023-04-24T06:55:37;13.40;99.90
14741;DHT22;7462;53.530;9.414;2023-04-24T06:58:06;13.60;99.90
14741;DHT22;7462;53.530;9.414;2023-04-24T07:00:34;13.50;99.90
14741;DHT22;7462;53.530;9.414;2023-04-24T07:03:05;13.30;99.90
14741;DHT22;7462;53.530;9.414;2023-04-24T07:05:34;13.10;99.90
14741;DHT22;7462;53.530;9.414;2023-04-24T07:08:03;13.00;99.90
14741;DHT22;7462;53.530;9.414;2023-04-24T07:10:31;12.90;99.90
14741;DHT22;7462;53.530;9.414;2023-04-24T07:13:00;12.90;99.90
14741;DHT22;7462;53.530;9.414;2023-04-24T07:15:29;12.90;99.90
14741;DHT22;7462;53.530;9.414;2023-04-24T07:17:57;12.90;99.90
14741;DHT22;7462;53.530;9.414;2023-04-24T07:20:27;12.90;99.90
14741;DHT22;7462;53.530;9.414;2023-04-24T07:22:55;12.90;99.90
14741;DHT22;7462;53.530;9.414;2023-04-24T07:25:23;12.90;99.90
14741;DHT22;7462;53.530;9.414;2023-04-24T07:27:52;12.90;99.90
14741;DHT22;7462;53.530;9.414;2023-04-24T07:30:20;12.80;99.90
14741;DHT22;7462;53.530;9.414;2023-04-24T07:32:49;12.90;99.90
14741;DHT22;7462;53.530;9.414;2023-04-24T07:35:17;12.90;99.90
14741;DHT22;7462;53.530;9.414;2023-04-24T07:37:48;12.90;99.90
14741;DHT22;7462;53.530;9.414;2023-04-24T07:40:16;12.80;99.90
14741;DHT22;7462;53.530;9.414;2023-04-24T07:42:44;12.80;99.90
14741;DHT22;7462;53.530;9.414;2023-04-24T07:45:15;12.80;99.90
14741;DHT22;7462;53.530;9.414;2023-04-24T07:47:43;12.80;99.90
14741;DHT22;7462;53.530;9.414;2023-04-24T07:50:12;12.80;99.90
14741;DHT22;7462;53.530;9.414;2023-04-24T07:52:40;12.80;99.90
14741;DHT22;7462;53.530;9.414;2023-04-24T07:55:10;12.80;99.90
14741;DHT22;7462;53.530;9.414;2023-04-24T07:57:38;12.80;99.90
14741;DHT22;7462;53.530;9.414;2023-04-24T08:00:07;12.70;99.90
14741;DHT22;7462;53.530;9.414;2023-04-24T08:02:38;12.70;99.90
14741;DHT22;7462;53.530;9.414;2023-04-24T08:05:07;12.80;99.90
14741;DHT22;7462;53.530;9.414;2023-04-24T08:07:36;12.70;99.90
14741;DHT22;7462;53.530;9.414;2023-04-24T08:10:05;12.60;99.90
14741;DHT22;7462;53.530;9.414;2023-04-24T08:12:35;12.60;99.90
14741;DHT22;7462;53.530;9.414;2023-04-24T08:15:03;12.70;99.90
14741;DHT22;7462;53.530;9.414;2023-04-24T08:17:33;12.80;99.90
14741;DHT22;7462;53.530;9.414;2023-04-24T08:20:01;12.80;99.90
14741;DHT22;7462;53.530;9.414;2023-04-24T08:22:30;12.80;99.90
14741;DHT22;7462;53.530;9.414;2023-04-24T08:25:00;12.90;99.90
14741;DHT22;7462;53.530;9.414;2023-04-24T08:27:28;13.10;99.90
14741;DHT22;7462;53.530;9.414;2023-04-24T08:29:58;13.20;99.90
14741;DHT22;7462;53.530;9.414;2023-04-24T08:32:27;13.30;99.90
14741;DHT22;7462;53.530;9.414;2023-04-24T08:34:58;13.50;99.90
14741;DHT22;7462;53.530;9.414;2023-04-24T08:37:27;13.60;99.90
14741;DHT22;7462;53.530;9.414;2023-04-24T08:39:56;13.80;99.90
14741;DHT22;7462;53.530;9.414;2023-04-24T08:42:28;14.00;99.90
14741;DHT22;7462;53.530;9.414;2023-04-24T08:45:01;14.00;99.90
14741;DHT22;7462;53.530;9.414;2023-04-24T08:47:30;14.20;99.90
14741;DHT22;7462;53.530;9.414;2023-04-24T08:49:59;14.40;99.90
14741;DHT22;7462;53.530;9.414;2023-04-24T08:52:30;14.20;99.90
14741;DHT22;7462;53.530;9.414;2023-04-24T08:54:59;14.20;99.90
14741;DHT22;7462;53.530;9.414;2023-04-24T08:57:27;14.20;99.90
14741;DHT22;7462;53.530;9.414;2023-04-24T08:59:56;14.10;99.90
14741;DHT22;7462;53.530;9.414;2023-04-24T09:02:26;13.90;99.90
14741;DHT22;7462;53.530;9.414;2023-04-24T09:04:55;14.10;99.90
14741;DHT22;7462;53.530;9.414;2023-04-24T09:07:24;13.90;99.90
14741;DHT22;7462;53.530;9.414;2023-04-24T09:09:54;13.80;99.90
14741;DHT22;7462;53.530;9.414;2023-04-24T09:12:22;13.50;99.90
14741;DHT22;7462;53.530;9.414;2023-04-24T09:14:51;13.40;99.90
14741;DHT22;7462;53.530;9.414;2023-04-24T09:17:20;13.40;99.90
14741;DHT22;7462;53.530;9.414;2023-04-24T09:19:51;13.60;99.90
14741;DHT22;7462;53.530;9.414;2023-04-24T09:22:20;13.70;99.90
14741;DHT22;7462;53.530;9.414;2023-04-24T09:24:59;14.00;99.90
14741;DHT22;7462;53.530;9.414;2023-04-24T09:27:29;14.10;99.90
14741;DHT22;7462;53.530;9.414;2023-04-24T09:29:58;14.10;99.90
14741;DHT22;7462;53.530;9.414;2023-04-24T09:32:27;13.90;99.90
14741;DHT22;7462;53.530;9.414;2023-04-24T09:35:11;13.80;99.90
14741;DHT22;7462;53.530;9.414;2023-04-24T09:37:41;13.70;99.90
14741;DHT22;7462;53.530;9.414;2023-04-24T09:40:15;13.60;99.90
14741;DHT22;7462;53.530;9.414;2023-04-24T09:42:45;13.40;99.90
14741;DHT22;7462;53.530;9.414;2023-04-24T09:45:13;13.30;99.90
14741;DHT22;7462;53.530;9.414;2023-04-24T09:47:43;13.20;99.90
14741;DHT22;7462;53.530;9.414;2023-04-24T09:50:17;13.20;99.90
14741;DHT22;7462;53.530;9.414;2023-04-24T09:52:56;13.20;99.90
14741;DHT22;7462;53.530;9.414;2023-04-24T09:55:25;13.30;99.90
14741;DHT22;7462;53.530;9.414;2023-04-24T09:57:55;13.40;99.90
14741;DHT22;7462;53.530;9.414;2023-04-24T10:00:24;13.40;99.90
14741;DHT22;7462;53.530;9.414;2023-04-24T10:02:57;13.40;99.90
14741;DHT22;7462;53.530;9.414;2023-04-24T10:05:31;13.30;99.90
14741;DHT22;7462;53.530;9.414;2023-04-24T10:08:02;13.20;99.90
14741;DHT22;7462;53.530;9.414;2023-04-24T10:10:32;13.20;99.90
14741;DHT22;7462;53.530;9.414;2023-04-24T10:13:00;13.20;99.90
14741;DHT22;7462;53.530;9.414;2023-04-24T10:15:30;13.20;99.90
14741;DHT22;7462;53.530;9.414;2023-04-24T10:17:58;13.20;99.90
14741;DHT22;7462;53.530;9.414;2023-04-24T10:20:28;13.20;99.90
14741;DHT22;7462;53.530;9.414;2023-04-24T10:22:59;13.30;99.90
14741;DHT22;7462;53.530;9.414;2023-04-24T10:25:28;13.30;99.90
14741;DHT22;7462;53.530;9.414;2023-04-24T10:27:58;13.30;99.90
14741;DHT22;7462;53.530;9.414;2023-04-24T10:30:28;13.20;99.90
14741;DHT22;7462;53.530;9.414;2023-04-24T10:32:56;13.20;99.90
14741;DHT22;7462;53.530;9.414;2023-04-24T10:35:24;13.30;99.90
14741;DHT22;7462;53.530;9.414;2023-04-24T10:37:58;13.30;99.90
14741;DHT22;7462;53.530;9.414;2023-04-24T10:40:30;13.30;99.90
14741;DHT22;7462;53.530;9.414;2023-04-24T10:42:59;13.20;99.90
14741;DHT22;7462;53.530;9.414;2023-04-24T10:45:27;13.10;99.90
14741;DHT22;7462;53.530;9.414;2023-04-24T10:47:57;13.00;99.90
14741;DHT22;7462;53.530;9.414;2023-04-24T10:50:42;13.00;99.90
14741;DHT22;7462;53.530;9.414;2023-04-24T10:53:17;12.90;99.90
14741;DHT22;7462;53.530;9.414;2023-04-24T10:55:47;12.90;99.90
14741;DHT22;7462;53.530;9.414;2023-04-24T10:58:16;12.80;99.90
14741;DHT22;7462;53.530;9.414;2023-04-24T11:00:56;12.90;99.90
14741;DHT22;7462;53.530;9.414;2023-04-24T11:03:26;12.90;99.90
14741;DHT22;7462;53.530;9.414;2023-04-24T11:05:57;12.90;99.90
14741;DHT22;7462;53.530;9.414;2023-04-24T11:08:30;12.80;99.90
14741;DHT22;7462;53.530;9.414;2023-04-24T11:11:00;12.80;99.90
14741;DHT22;7462;53.530;9.414;2023-04-24T11:14:03;12.70;99.90
14741;DHT22;7462;53.530;9.414;2023-04-24T11:16:37;12.70;99.90
14741;DHT22;7462;53.530;9.414;2023-04-24T11:19:08;12.70;99.90
14741;DHT22;7462;53.530;9.414;2023-04-24T11:21:41;12.80;99.90
14741;DHT22;7462;53.530;9.414;2023-04-24T11:24:25;12.70;99.90
14741;DHT22;7462;53.530;9.414;2023-04-24T11:26:55;12.70;99.90
14741;DHT22;7462;53.530;9.414;2023-04-24T11:29:38;12.80;99.90
14741;DHT22;7462;53.530;9.414;2023-04-24T11:32:17;12.90;99.90
14741;DHT22;7462;53.530;9.414;2023-04-24T11:34:47;12.90;99.90
14741;DHT22;7462;53.530;9.414;2023-04-24T11:37:16;12.90;99.90
14741;DHT22;7462;53.530;9.414;2023-04-24T11:39:45;12.90;99.90
14741;DHT22;7462;53.530;9.414;2023-04-24T11:42:15;12.90;99.90
14741;DHT22;7462;53.530;9.414;2023-04-24T11:44:43;12.80;99.90
14741;DHT22;7462;53.530;9.414;2023-04-24T11:47:14;12.90;99.90
14741;DHT22;7462;53.530;9.414;2023-04-24T11:49:43;12.80;99.90
14741;DHT22;7462;53.530;9.414;2023-04-24T11:52:15;12.80;99.90
14741;DHT22;7462;53.530;9.414;2023-04-24T11:54:49;12.70;99.90
14741;DHT22;7462;53.530;9.414;2023-04-24T11:57:19;12.80;99.90
14741;DHT22;7462;53.530;9.414;2023-04-24T11:59:49;12.70;99.90
14741;DHT22;7462;53.530;9.414;2023-04-24T12:02:21;12.60;99.90
14741;DHT22;7462;53.530;9.414;2023-04-24T12:04:50;12.60;99.90
14741;DHT22;7462;53.530;9.414;2023-04-24T12:07:19;12.60;99.90
14741;DHT22;7462;53.530;9.414;2023-04-24T12:09:55;12.60;99.90
14741;DHT22;7462;53.530;9.414;2023-04-24T12:12:26;12.60;99.90
14741;DHT22;7462;53.530;9.414;2023-04-24T12:14:57;12.60;99.90
14741;DHT22;7462;53.530;9.414;2023-04-24T12:17:27;12.70;99.90
14741;DHT22;7462;53.530;9.414;2023-04-24T12:19:59;12.70;99.90
14741;DHT22;7462;53.530;9.414;2023-04-24T12:22:43;12.80;99.90
14741;DHT22;7462;53.530;9.414;2023-04-24T12:25:16;12.80;99.90
14741;DHT22;7462;53.530;9.414;2023-04-24T12:27:46;12.80;99.90
14741;DHT22;7462;53.530;9.414;2023-04-24T12:30:15;12.80;99.90
14741;DHT22;7462;53.530;9.414;2023-04-24T12:32:46;12.90;99.90
14741;DHT22;7462;53.530;9.414;2023-04-24T12:35:19;13.00;99.90
14741;DHT22;7462;53.530;9.414;2023-04-24T12:37:48;12.80;99.90
14741;DHT22;7462;53.530;9.414;2023-04-24T12:40:19;12.70;99.90
14741;DHT22;7462;53.530;9.414;2023-04-24T12:42:51;12.50;99.90
14741;DHT22;7462;53.530;9.414;2023-04-24T12:45:21;12.50;99.90
14741;DHT22;7462;53.530;9.414;2023-04-24T12:47:50;12.40;99.90
14741;DHT22;7462;53.530;9.414;2023-04-24T12:50:19;12.50;99.90
14741;DHT22;7462;53.530;9.414;2023-04-24T12:52:48;12.50;99.90
14741;DHT22;7462;53.530;9.414;2023-04-24T12:55:17;12.60;99.90
14741;DHT22;7462;53.530;9.414;2023-04-24T12:57:46;12.70;99.90
14741;DHT22;7462;53.530;9.414;2023-04-24T13:00:15;12.70;99.90
14741;DHT22;7462;53.530;9.414;2023-04-24T13:02:46;12.70;99.90
14741;DHT22;7462;53.530;9.414;2023-04-24T13:05:16;12.60;99.90
14741;DHT22;7462;53.530;9.414;2023-04-24T13:07:44;12.60;99.90
14741;DHT22;7462;53.530;9.414;2023-04-24T13:10:12;12.60;99.90
14741;DHT22;7462;53.530;9.414;2023-04-24T13:12:42;12.60;99.90
14741;DHT22;7462;53.530;9.414;2023-04-24T13:15:12;12.60;99.90
14741;DHT22;7462;53.530;9.414;2023-04-24T13:17:40;12.60;99.90
14741;DHT22;7462;53.530;9.414;2023-04-24T13:20:09;12.60;99.90
14741;DHT22;7462;53.530;9.414;2023-04-24T13:22:37;12.50;99.90
14741;DHT22;7462;53.530;9.414;2023-04-24T13:25:06;12.50;99.90
14741;DHT22;7462;53.530;9.414;2023-04-24T13:30:07;12.30;99.90
14741;DHT22;7462;53.530;9.414;2023-04-24T13:32:35;12.20;99.90
14741;DHT22;7462;53.530;9.414;2023-04-24T13:35:04;12.10;99.90
14741;DHT22;7462;53.530;9.414;2023-04-24T13:37:32;12.10;99.90
14741;DHT22;7462;53.530;9.414;2023-04-24T13:40:00;12.10;99.90
14741;DHT22;7462;53.530;9.414;2023-04-24T13:42:29;12.00;99.90
14741;DHT22;7462;53.530;9.414;2023-04-24T13:44:57;12.00;99.90
14741;DHT22;7462;53.530;9.414;2023-04-24T13:47:28;12.10;99.90
14741;DHT22;7462;53.530;9.414;2023-04-24T13:49:56;12.10;99.90
14741;DHT22;7462;53.530;9.414;2023-04-24T13:52:24;12.00;99.90
14741;DHT22;7462;53.530;9.414;2023-04-24T13:54:52;12.00;99.90
14741;DHT22;7462;53.530;9.414;2023-04-24T13:57:20;12.00;99.90
14741;DHT22;7462;53.530;9.414;2023-04-24T13:59:48;12.00;99.90
14741;DHT22;7462;53.530;9.414;2023-04-24T14:02:16;12.00;99.90
14741;DHT22;7462;53.530;9.414;2023-04-24T14:04:46;12.00;99.90
14741;DHT22;7462;53.530;9.414;2023-04-24T14:07:15;11.90;99.90
14741;DHT22;7462;53.530;9.414;2023-04-24T14:09:43;11.80;99.90
14741;DHT22;7462;53.530;9.414;2023-04-24T14:12:11;11.80;99.90
14741;DHT22;7462;53.530;9.414;2023-04-24T14:14:39;11.90;99.90
14741;DHT22;7462;53.530;9.414;2023-04-24T14:17:07;11.80;99.90
14741;DHT22;7462;53.530;9.414;2023-04-24T14:19:36;11.70;99.90
14741;DHT22;7462;53.530;9.414;2023-04-24T14:22:05;11.60;99.90
14741;DHT22;7462;53.530;9.414;2023-04-24T14:24:33;11.50;99.90
14741;DHT22;7462;53.530;9.414;2023-04-24T14:27:01;11.40;99.90
14741;DHT22;7462;53.530;9.414;2023-04-24T14:29:29;11.30;99.90
14741;DHT22;7462;53.530;9.414;2023-04-24T14:32:00;11.20;99.90
14741;DHT22;7462;53.530;9.414;2023-04-24T14:34:28;11.10;99.90
14741;DHT22;7462;53.530;9.414;2023-04-24T14:36:56;11.00;99.90
14741;DHT22;7462;53.530;9.414;2023-04-24T14:39:26;10.90;99.90
14741;DHT22;7462;53.530;9.414;2023-04-24T14:41:55;10.90;99.90
14741;DHT22;7462;53.530;9.414;2023-04-24T14:44:23;10.90;99.90
14741;DHT22;7462;53.530;9.414;2023-04-24T14:46:51;10.80;99.90
14741;DHT22;7462;53.530;9.414;2023-04-24T14:49:20;10.80;99.90
14741;DHT22;7462;53.530;9.414;2023-04-24T14:51:48;10.70;99.90
14741;DHT22;7462;53.530;9.414;2023-04-24T14:54:16;10.70;99.90
14741;DHT22;7462;53.530;9.414;2023-04-24T14:56:46;10.70;99.90
14741;DHT22;7462;53.530;9.414;2023-04-24T14:59:14;10.60;99.90
14741;DHT22;7462;53.530;9.414;2023-04-24T15:01:43;10.60;99.90
14741;DHT22;7462;53.530;9.414;2023-04-24T15:04:11;10.60;99.90
14741;DHT22;7462;53.530;9.414;2023-04-24T15:06:39;10.50;99.90
14741;DHT22;7462;53.530;9.414;2023-04-24T15:09:07;10.50;99.90
14741;DHT22;7462;53.530;9.414;2023-04-24T15:11:36;10.50;99.90
14741;DHT22;7462;53.530;9.414;2023-04-24T15:14:06;10.50;99.90
14741;DHT22;7462;53.530;9.414;2023-04-24T15:16:37;10.30;99.90
14741;DHT22;7462;53.530;9.414;2023-04-24T15:19:06;10.30;99.90
14741;DHT22;7462;53.530;9.414;2023-04-24T15:21:35;10.30;99.90
14741;DHT22;7462;53.530;9.414;2023-04-24T15:24:04;10.20;99.90
14741;DHT22;7462;53.530;9.414;2023-04-24T15:26:32;10.20;99.90
14741;DHT22;7462;53.530;9.414;2023-04-24T15:29:01;10.20;99.90
14741;DHT22;7462;53.530;9.414;2023-04-24T15:31:30;10.30;99.90
14741;DHT22;7462;53.530;9.414;2023-04-24T15:33:58;10.20;99.90
14741;DHT22;7462;53.530;9.414;2023-04-24T15:36:26;10.20;99.90
14741;DHT22;7462;53.530;9.414;2023-04-24T15:38:54;10.10;99.90
14741;DHT22;7462;53.530;9.414;2023-04-24T15:41:23;10.00;99.90
14741;DHT22;7462;53.530;9.414;2023-04-24T15:43:51;10.00;99.90
14741;DHT22;7462;53.530;9.414;2023-04-24T15:46:19;9.90;99.90
14741;DHT22;7462;53.530;9.414;2023-04-24T15:48:48;9.80;99.90
14741;DHT22;7462;53.530;9.414;2023-04-24T15:51:16;9.80;99.90
14741;DHT22;7462;53.530;9.414;2023-04-24T15:53:44;9.70;99.90
14741;DHT22;7462;53.530;9.414;2023-04-24T15:56:13;9.70;99.90
14741;DHT22;7462;53.530;9.414;2023-04-24T15:58:41;9.70;99.90
14741;DHT22;7462;53.530;9.414;2023-04-24T16:01:10;9.60;99.90
14741;DHT22;7462;53.530;9.414;2023-04-24T16:03:38;9.70;99.90
14741;DHT22;7462;53.530;9.414;2023-04-24T16:06:08;9.70;99.90
14741;DHT22;7462;53.530;9.414;2023-04-24T16:08:36;9.60;99.90